Time;durP1;ratioP1;P1;durP2;ratioP2;P2;SDS_P1;SDS_P2;PMS_P1;PMS_P2;Temp;Humidity;BMP_temperature;BMP_pressure;BME280_temperature;BME280_humidity;BME280_pressure;Samples;Min_cycle;Max_cycle;Signal;HPM_P1;HPM_P2
2022/01/02 00:01:44;;;;;;;9.13;3.57;;;;;;;6.14;82.59;96950.75;5035012;28;20201;-71
2022/01/02 00:04:15;;;;;;;5.30;2.33;;;;;;;6.18;82.26;96959.97;5034423;28;20799;-71
2022/01/02 00:06:46;;;;;;;3.90;2.63;;;;;;;5.92;82.92;96948.31;5035429;28;20247;-72
2022/01/02 00:09:20;;;;;;;4.57;3.13;;;;;;;5.99;83.48;96946.00;5031653;28;20205;-71
2022/01/02 00:11:50;;;;;;;4.37;2.90;;;;;;;6.11;83.92;96946.59;5032999;28;20201;-72
2022/01/02 00:14:25;;;;;;;4.37;2.77;;;;;;;6.17;82.73;96940.84;5033516;28;20221;-71
2022/01/02 00:16:51;;;;;;;4.63;2.30;;;;;;;5.61;82.13;96945.78;5034121;28;20204;-71
2022/01/02 00:19:28;;;;;;;2.93;1.73;;;;;;;5.99;81.22;96940.78;5033906;28;20702;-71
2022/01/02 00:21:59;;;;;;;2.97;2.13;;;;;;;6.01;81.90;96938.84;5033941;28;20208;-72
2022/01/02 00:24:27;;;;;;;5.83;2.73;;;;;;;6.13;82.86;96939.44;5033809;28;20221;-71
2022/01/02 00:26:56;;;;;;;2.17;1.77;;;;;;;6.04;82.77;96934.19;5036195;28;20319;-72
2022/01/02 00:29:25;;;;;;;3.17;2.80;;;;;;;6.18;83.08;96931.19;5036741;28;20208;-72
2022/01/02 00:31:53;;;;;;;2.67;1.93;;;;;;;6.25;84.25;96933.16;5036316;28;20212;-71
2022/01/02 00:34:20;;;;;;;5.63;2.77;;;;;;;5.99;83.36;96925.09;5035285;28;20751;-71
2022/01/02 00:36:47;;;;;;;3.90;2.10;;;;;;;6.16;83.13;96928.72;5036483;28;20209;-71
2022/01/02 00:39:14;;;;;;;5.27;2.40;;;;;;;6.13;82.91;96925.53;5035370;28;20208;-72
2022/01/02 00:41:44;;;;;;;4.03;2.50;;;;;;;6.50;83.14;96924.78;5035879;28;20205;-71
2022/01/02 00:44:22;;;;;;;5.07;2.60;;;;;;;6.56;84.28;96924.25;5035491;28;20227;-71
2022/01/02 00:46:58;;;;;;;5.40;2.70;;;;;;;6.50;84.09;96916.94;5035526;28;20221;-71
2022/01/02 00:49:26;;;;;;;5.47;3.20;;;;;;;6.43;83.82;96915.81;5035861;28;20201;-71
2022/01/02 00:52:03;;;;;;;3.33;2.20;;;;;;;6.37;84.42;96915.53;5036209;28;20205;-71
2022/01/02 00:54:31;;;;;;;6.37;2.67;;;;;;;5.91;86.24;96917.91;5035959;28;20225;-71
2022/01/02 00:57:04;;;;;;;2.57;2.17;;;;;;;6.27;85.72;96919.94;5036645;28;20415;-71
2022/01/02 00:59:39;;;;;;;8.23;3.83;;;;;;;6.48;84.86;96920.63;5035781;28;20205;-71
2022/01/02 01:02:14;;;;;;;5.53;3.50;;;;;;;6.14;86.24;96925.41;5035640;28;20197;-71
2022/01/02 01:04:43;;;;;;;3.57;2.10;;;;;;;5.92;87.91;96918.72;5035792;28;20228;-71
2022/01/02 01:07:10;;;;;;;3.23;1.83;;;;;;;5.85;86.90;96920.22;5034413;28;20286;-71
2022/01/02 01:09:37;;;;;;;6.23;3.03;;;;;;;5.68;86.66;96926.03;5036109;28;20212;-71
2022/01/02 01:12:05;;;;;;;5.67;3.20;;;;;;;5.61;88.40;96925.72;5036381;28;20201;-71
2022/01/02 01:14:32;;;;;;;6.67;2.27;;;;;;;5.80;86.59;96925.00;5036021;28;20221;-72
2022/01/02 01:16:59;;;;;;;2.63;1.87;;;;;;;5.27;88.79;96935.69;5036238;28;20214;-71
2022/01/02 01:19:27;;;;;;;6.63;2.73;;;;;;;5.67;88.23;96921.75;5036093;28;20201;-72
2022/01/02 01:21:54;;;;;;;4.83;2.03;;;;;;;5.60;87.11;96920.59;5035924;28;20651;-72
2022/01/02 01:24:21;;;;;;;4.87;2.80;;;;;;;5.54;87.93;96921.16;5035598;28;20275;-71
2022/01/02 01:26:50;;;;;;;1.50;1.33;;;;;;;5.55;87.11;96902.72;5036593;28;20209;-72
2022/01/02 01:29:16;;;;;;;4.83;2.17;;;;;;;5.59;88.07;96885.00;5035234;28;20197;-71
2022/01/02 01:31:44;;;;;;;2.43;1.60;;;;;;;5.63;86.62;96875.91;5036273;28;20223;-72
2022/01/02 01:34:10;;;;;;;4.93;2.83;;;;;;;5.53;86.36;96870.63;5035618;28;20220;-71
2022/01/02 01:36:38;;;;;;;3.10;2.30;;;;;;;5.35;89.03;96886.25;5036334;28;20193;-71
2022/01/02 01:39:05;;;;;;;4.27;1.97;;;;;;;5.16;90.25;96902.63;5035482;28;20209;-71
2022/01/02 01:41:35;;;;;;;4.30;3.53;;;;;;;5.59;89.66;96900.66;5036433;28;20212;-71
2022/01/02 01:44:09;;;;;;;2.30;1.77;;;;;;;5.38;89.37;96894.63;5034852;28;20229;-71
2022/01/02 01:46:37;;;;;;;1.57;1.47;;;;;;;5.75;88.12;96895.78;5034505;28;20259;-72
2022/01/02 01:49:15;;;;;;;1.93;1.83;;;;;;;6.25;86.27;96900.91;5032226;28;20252;-71
2022/01/02 01:51:43;;;;;;;6.63;2.47;;;;;;;5.86;87.10;96895.72;5033442;28;20313;-71
2022/01/02 01:54:10;;;;;;;9.33;2.33;;;;;;;5.83;86.12;96888.13;5031442;28;20226;-71
2022/01/02 01:56:37;;;;;;;2.57;1.97;;;;;;;5.91;85.26;96896.97;5034976;28;20235;-72
2022/01/02 01:59:04;;;;;;;3.37;2.23;;;;;;;6.01;85.25;96881.28;5035139;28;20212;-71
2022/01/02 02:01:31;;;;;;;2.33;2.17;;;;;;;5.86;85.21;96893.09;5036344;28;20207;-71
2022/01/02 02:03:58;;;;;;;1.97;1.70;;;;;;;5.64;87.41;96898.50;5035426;28;20229;-71
2022/01/02 02:06:25;;;;;;;5.10;2.93;;;;;;;5.64;86.67;96893.28;5036010;28;20204;-71
2022/01/02 02:08:54;;;;;;;5.30;2.47;;;;;;;6.20;85.46;96877.78;5035474;28;20225;-71
2022/01/02 02:11:21;;;;;;;2.60;1.50;;;;;;;6.02;84.99;96868.09;5036295;28;20197;-71
2022/01/02 02:13:49;;;;;;;6.10;1.97;;;;;;;5.94;84.03;96869.72;5033940;28;20242;-71
2022/01/02 02:16:16;;;;;;;4.03;1.97;;;;;;;5.66;84.49;96871.22;5034842;28;20197;-71
2022/01/02 02:18:42;;;;;;;6.07;2.27;;;;;;;5.70;85.39;96883.13;5035021;28;20217;-71
2022/01/02 02:21:10;;;;;;;4.60;2.50;;;;;;;6.10;84.36;96870.88;5035018;28;20689;-71
2022/01/02 02:23:37;;;;;;;9.40;2.73;;;;;;;5.85;84.78;96854.84;5034073;28;20287;-71
2022/01/02 02:26:04;;;;;;;4.57;2.63;;;;;;;5.97;84.59;96859.81;5036171;28;20290;-71
2022/01/02 02:28:30;;;;;;;6.57;2.83;;;;;;;5.90;83.87;96847.41;5036730;28;20594;-71
2022/01/02 02:30:57;;;;;;;5.63;3.17;;;;;;;5.50;84.07;96851.81;5035596;28;20201;-71
2022/01/02 02:33:24;;;;;;;5.77;1.73;;;;;;;5.19;85.79;96863.19;5035413;28;20205;-71
2022/01/02 02:35:51;;;;;;;2.83;2.00;;;;;;;5.17;87.11;96866.91;5036040;28;20220;-71
2022/01/02 02:38:20;;;;;;;2.07;1.87;;;;;;;5.46;86.15;96873.94;5036031;28;20224;-72
2022/01/02 02:40:47;;;;;;;6.20;2.70;;;;;;;5.33;85.42;96877.69;5035725;28;20213;-71
2022/01/02 02:43:25;;;;;;;12.07;2.70;;;;;;;5.40;85.34;96864.00;5035700;28;20204;-72
2022/01/02 02:51:27;;;;;;;3.97;2.80;;;;;;;5.51;84.36;96856.03;5036308;28;21151;-71
2022/01/02 02:53:55;;;;;;;3.27;1.97;;;;;;;5.32;84.53;96844.69;5034785;28;20209;-72
2022/01/02 02:56:24;;;;;;;1.63;1.53;;;;;;;5.57;83.78;96842.44;5035021;28;21083;-71
2022/01/02 02:58:55;;;;;;;5.13;2.57;;;;;;;5.70;83.67;96835.19;5035667;28;20201;-71
2022/01/02 03:01:23;;;;;;;5.57;2.60;;;;;;;5.50;84.76;96834.31;5035612;28;20197;-71
2022/01/02 03:03:50;;;;;;;2.07;1.80;;;;;;;5.54;84.49;96835.69;5034680;28;21274;-72
2022/01/02 03:06:18;;;;;;;5.60;2.37;;;;;;;5.73;83.84;96824.50;5035676;28;20205;-72
2022/01/02 03:08:45;;;;;;;3.00;2.40;;;;;;;5.71;85.03;96826.41;5035765;28;20271;-71
2022/01/02 03:11:17;;;;;;;2.00;1.80;;;;;;;5.96;84.13;96824.16;5035213;28;20205;-71
2022/01/02 03:13:45;;;;;;;1.77;1.53;;;;;;;5.76;84.95;96822.44;5034818;28;20232;-71
2022/01/02 03:16:18;;;;;;;3.73;1.83;;;;;;;6.06;84.88;96822.41;5035531;28;20201;-72
2022/01/02 03:18:45;;;;;;;5.27;2.27;;;;;;;5.73;84.69;96820.09;5028001;28;20201;-71
2022/01/02 03:21:12;;;;;;;4.53;2.10;;;;;;;6.06;84.51;96811.94;5036258;28;20600;-72
2022/01/02 03:23:39;;;;;;;1.83;1.50;;;;;;;5.70;85.05;96811.66;5035951;28;20205;-71
2022/01/02 03:26:06;;;;;;;1.70;1.60;;;;;;;5.61;84.26;96812.47;5039637;28;20197;-72
2022/01/02 03:28:34;;;;;;;2.20;1.80;;;;;;;5.66;85.76;96808.50;5039029;28;20232;-72
2022/01/02 03:31:01;;;;;;;1.27;1.17;;;;;;;5.59;85.82;96811.78;5039585;28;20205;-71
2022/01/02 03:33:28;;;;;;;2.97;2.13;;;;;;;5.53;83.65;96817.53;5038713;28;20213;-71
2022/01/02 03:35:54;;;;;;;1.90;1.53;;;;;;;5.35;85.66;96808.66;5039414;28;20691;-71
2022/01/02 03:38:21;;;;;;;4.37;2.70;;;;;;;5.41;85.68;96808.16;5039684;28;20201;-71
2022/01/02 03:40:47;;;;;;;4.67;3.40;;;;;;;5.56;84.83;96791.13;5039252;28;20208;-72
2022/01/02 03:43:14;;;;;;;3.03;1.83;;;;;;;5.65;84.42;96790.31;5038429;28;20205;-72
2022/01/02 03:45:42;;;;;;;2.90;1.83;;;;;;;5.80;83.53;96778.56;5039052;28;20584;-71
2022/01/02 03:48:08;;;;;;;1.87;1.60;;;;;;;5.51;83.00;96777.63;5038983;28;20225;-72
2022/01/02 03:50:35;;;;;;;5.23;2.17;;;;;;;5.47;83.93;96768.41;5038841;28;20205;-72
2022/01/02 03:53:02;;;;;;;1.83;1.63;;;;;;;5.17;87.68;96773.69;5038676;28;20232;-71
2022/01/02 03:55:28;;;;;;;4.27;2.50;;;;;;;5.50;87.16;96779.44;5039207;28;20217;-71
2022/01/02 03:57:55;;;;;;;4.10;2.03;;;;;;;5.73;86.19;96766.97;5038307;28;21031;-72
2022/01/02 04:00:21;;;;;;;4.33;2.30;;;;;;;5.45;87.64;96770.34;5038204;28;20211;-72
2022/01/02 04:02:49;;;;;;;2.33;1.70;;;;;;;5.42;87.99;96769.78;5038730;28;20205;-72
2022/01/02 04:05:17;;;;;;;1.53;1.37;;;;;;;5.35;87.83;96776.50;5038708;28;20221;-72
2022/01/02 04:07:44;;;;;;;2.17;1.07;;;;;;;5.29;86.29;96777.03;5039246;28;20205;-71
2022/01/02 04:10:13;;;;;;;5.07;2.30;;;;;;;5.28;86.02;96785.81;5039043;28;20223;-71
2022/01/02 04:12:40;;;;;;;1.33;1.23;;;;;;;5.04;87.39;96780.91;5038382;28;20205;-71
2022/01/02 04:15:09;;;;;;;2.20;1.53;;;;;;;5.28;87.14;96791.84;5038329;28;20220;-71
2022/01/02 04:17:38;;;;;;;2.33;1.43;;;;;;;5.50;86.54;96782.03;5038833;28;20201;-71
2022/01/02 04:20:08;;;;;;;2.40;1.63;;;;;;;5.67;85.81;96786.63;5038329;28;20201;-71
2022/01/02 04:22:36;;;;;;;1.97;1.80;;;;;;;5.54;85.10;96782.63;5037737;28;20197;-72
2022/01/02 04:25:02;;;;;;;1.20;1.10;;;;;;;5.43;84.71;96765.25;5038155;28;20221;-71
2022/01/02 04:27:29;;;;;;;2.60;1.50;;;;;;;5.58;84.09;96768.31;5038536;28;20654;-71
2022/01/02 04:29:55;;;;;;;2.77;1.80;;;;;;;5.46;83.65;96764.97;5038121;28;20225;-71
2022/01/02 04:32:22;;;;;;;4.57;1.97;;;;;;;5.56;82.96;96759.75;5038083;28;20204;-71
2022/01/02 04:34:49;;;;;;;5.47;2.37;;;;;;;5.43;83.21;96760.03;5038083;28;20434;-71
2022/01/02 04:37:17;;;;;;;5.20;1.77;;;;;;;5.83;82.82;96755.59;5037749;28;20198;-71
2022/01/02 04:39:44;;;;;;;1.20;1.10;;;;;;;5.56;83.09;96749.31;5037485;28;20236;-71
2022/01/02 04:42:11;;;;;;;4.67;1.80;;;;;;;5.83;82.85;96739.06;5037869;28;20205;-71
2022/01/02 04:44:38;;;;;;;7.73;2.20;;;;;;;5.57;82.92;96738.72;5038199;28;20225;-71
2022/01/02 04:47:05;;;;;;;2.80;2.00;;;;;;;5.62;84.17;96739.13;5037804;28;20212;-71
2022/01/02 04:49:32;;;;;;;5.27;1.50;;;;;;;5.65;84.19;96727.59;5038069;28;20228;-72
2022/01/02 04:52:00;;;;;;;2.90;1.57;;;;;;;5.56;84.88;96718.78;5036733;28;20739;-72
2022/01/02 04:54:28;;;;;;;5.73;2.47;;;;;;;5.75;86.87;96716.19;5037143;28;21136;-71
2022/01/02 04:56:55;;;;;;;4.13;1.63;;;;;;;5.72;86.07;96720.88;5037726;28;20581;-71
2022/01/02 04:59:21;;;;;;;3.47;2.10;;;;;;;5.74;85.85;96713.69;5038006;28;20696;-72
2022/01/02 05:01:48;;;;;;;3.73;2.97;;;;;;;5.84;85.76;96685.81;5037310;28;20216;-72
2022/01/02 05:04:14;;;;;;;2.53;1.70;;;;;;;5.83;85.12;96689.38;5037486;28;20224;-71
2022/01/02 05:06:41;;;;;;;2.60;1.87;;;;;;;5.86;85.07;96696.97;5037286;28;20686;-71
2022/01/02 05:09:07;;;;;;;3.73;1.77;;;;;;;5.69;86.34;96708.06;5037224;28;20232;-71
2022/01/02 05:11:35;;;;;;;2.10;1.43;;;;;;;5.97;87.38;96695.03;5037279;28;20292;-71
2022/01/02 05:14:02;;;;;;;3.33;1.90;;;;;;;6.00;85.59;96688.72;5036883;28;20221;-71
2022/01/02 05:16:28;;;;;;;4.73;1.73;;;;;;;6.17;84.96;96679.19;5037417;28;20197;-72
2022/01/02 05:18:55;;;;;;;3.60;2.83;;;;;;;6.00;85.38;96681.69;5037117;28;20202;-71
2022/01/02 05:21:21;;;;;;;4.17;2.63;;;;;;;6.18;85.02;96687.84;5036962;28;20208;-71
2022/01/02 05:23:48;;;;;;;6.27;3.00;;;;;;;6.29;84.41;96678.06;5036212;28;20216;-72
2022/01/02 05:26:14;;;;;;;4.73;2.87;;;;;;;6.07;84.88;96672.28;5037328;28;20224;-71
2022/01/02 05:28:42;;;;;;;7.90;2.53;;;;;;;6.33;84.44;96679.44;5036732;28;20221;-71
2022/01/02 05:31:09;;;;;;;5.97;2.77;;;;;;;6.04;84.05;96677.81;5036888;28;20201;-71
2022/01/02 05:33:35;;;;;;;4.23;2.87;;;;;;;6.15;83.82;96678.50;5036401;28;20209;-71
2022/01/02 05:36:02;;;;;;;7.87;2.70;;;;;;;5.49;85.23;96686.28;5036756;28;20228;-71
2022/01/02 05:38:28;;;;;;;6.53;1.93;;;;;;;5.67;84.78;96695.13;5036611;28;20217;-71
2022/01/02 05:40:56;;;;;;;5.97;2.40;;;;;;;4.63;88.69;96701.00;5037121;28;20225;-72
2022/01/02 05:43:22;;;;;;;3.27;1.97;;;;;;;4.84;87.34;96700.81;5036534;28;20197;-71
2022/01/02 05:45:50;;;;;;;11.13;1.93;;;;;;;4.84;87.82;96710.44;5037218;28;20245;-71
2022/01/02 05:48:17;;;;;;;4.87;1.40;;;;;;;4.56;88.59;96718.16;5035562;28;20209;-71
2022/01/02 05:50:43;;;;;;;1.13;1.03;;;;;;;4.63;87.88;96719.25;5037090;28;20205;-71
2022/01/02 05:53:10;;;;;;;2.30;1.67;;;;;;;4.88;87.71;96730.94;5036551;28;20251;-71
2022/01/02 05:55:37;;;;;;;0.93;0.93;;;;;;;4.92;88.09;96731.50;5037472;28;20225;-71
2022/01/02 05:58:04;;;;;;;1.40;1.30;;;;;;;5.17;87.49;96731.88;5036008;28;20211;-71
2022/01/02 06:00:31;;;;;;;5.83;2.50;;;;;;;5.34;86.44;96728.63;5037023;28;20205;-71
2022/01/02 06:02:59;;;;;;;3.60;2.47;;;;;;;5.46;87.16;96722.34;5036064;28;20288;-71
2022/01/02 06:05:26;;;;;;;8.67;1.73;;;;;;;5.29;85.13;96716.94;5036500;28;20225;-71
2022/01/02 06:07:52;;;;;;;4.40;1.60;;;;;;;5.53;83.97;96713.81;5036951;28;20197;-71
2022/01/02 06:10:19;;;;;;;3.73;2.30;;;;;;;5.26;85.04;96704.16;5036717;28;20231;-72
2022/01/02 06:12:45;;;;;;;3.47;2.43;;;;;;;5.04;87.47;96694.72;5036262;28;20205;-72
2022/01/02 06:15:12;;;;;;;2.43;1.83;;;;;;;5.14;87.80;96685.13;5036391;28;20235;-71
2022/01/02 06:17:38;;;;;;;3.87;2.77;;;;;;;5.17;87.51;96674.41;5036677;28;20200;-71
2022/01/02 06:20:07;;;;;;;2.43;1.73;;;;;;;5.52;87.85;96675.59;5036236;28;20200;-71
2022/01/02 06:22:33;;;;;;;5.70;2.97;;;;;;;5.53;85.99;96682.44;5035528;28;20208;-72
2022/01/02 06:25:00;;;;;;;5.63;3.03;;;;;;;5.77;84.84;96669.03;5036622;28;20221;-71
2022/01/02 06:27:27;;;;;;;3.80;2.20;;;;;;;5.77;84.86;96684.72;5036731;28;20201;-71
2022/01/02 06:29:53;;;;;;;3.80;1.77;;;;;;;5.65;84.33;96672.69;5035469;28;20229;-72
2022/01/02 06:32:20;;;;;;;6.07;2.63;;;;;;;5.63;85.42;96661.56;5035633;28;20201;-71
2022/01/02 06:34:46;;;;;;;3.37;1.67;;;;;;;5.69;84.98;96666.22;5036795;28;20229;-71
2022/01/02 06:37:14;;;;;;;2.27;1.50;;;;;;;5.99;85.21;96660.91;5035690;28;20205;-72
2022/01/02 06:39:41;;;;;;;5.67;3.37;;;;;;;5.83;85.54;96660.63;5035907;28;20629;-71
2022/01/02 06:42:08;;;;;;;7.37;3.27;;;;;;;5.96;85.10;96650.69;5036091;28;20197;-72
2022/01/02 06:44:35;;;;;;;5.00;2.40;;;;;;;5.96;84.71;96653.31;5036006;28;20248;-71
2022/01/02 06:47:01;;;;;;;3.70;2.00;;;;;;;5.61;85.08;96669.53;5035787;28;20259;-71
2022/01/02 06:49:28;;;;;;;6.37;2.93;;;;;;;5.79;85.78;96656.63;5036047;28;20271;-71
2022/01/02 06:51:54;;;;;;;5.73;3.53;;;;;;;5.62;85.10;96645.03;5036142;28;20204;-71
2022/01/02 06:54:23;;;;;;;4.37;2.67;;;;;;;5.98;85.52;96635.69;5035602;28;20224;-72
2022/01/02 06:56:49;;;;;;;6.17;3.07;;;;;;;5.65;86.38;96625.63;5035798;28;20201;-71
2022/01/02 06:59:17;;;;;;;6.77;3.13;;;;;;;5.78;85.54;96621.81;5037333;28;20197;-71
2022/01/02 07:01:43;;;;;;;11.07;3.30;;;;;;;5.76;85.86;96625.53;5039766;28;20205;-71
2022/01/02 07:04:10;;;;;;;7.40;2.37;;;;;;;5.83;85.54;96631.84;5039513;28;20223;-71
2022/01/02 07:06:36;;;;;;;5.57;3.60;;;;;;;5.67;86.61;96636.78;5039991;28;20206;-71
2022/01/02 07:09:04;;;;;;;4.03;2.43;;;;;;;5.80;86.40;96647.81;5039585;28;20225;-71
2022/01/02 07:11:32;;;;;;;6.03;3.10;;;;;;;5.79;86.63;96647.00;5039456;28;20729;-71
2022/01/02 07:13:58;;;;;;;7.30;3.23;;;;;;;5.82;85.93;96645.91;5039059;28;20209;-71
2022/01/02 07:16:25;;;;;;;7.23;3.73;;;;;;;5.87;85.11;96648.91;5040342;28;20386;-71
2022/01/02 07:18:51;;;;;;;7.33;3.23;;;;;;;5.59;86.66;96636.66;5040189;28;20208;-71
2022/01/02 07:21:18;;;;;;;3.57;2.60;;;;;;;5.25;88.13;96635.38;5039668;28;20208;-72
2022/01/02 07:23:45;;;;;;;7.10;3.13;;;;;;;5.51;86.26;96626.03;5039197;28;20205;-71
2022/01/02 07:26:11;;;;;;;7.47;3.23;;;;;;;5.14;86.72;96630.28;5039851;28;20487;-71
2022/01/02 07:28:39;;;;;;;1.83;1.40;;;;;;;5.62;85.44;96639.78;5039263;28;20204;-71
2022/01/02 07:31:06;;;;;;;5.20;2.23;;;;;;;5.53;84.46;96626.75;5039724;28;20288;-71
2022/01/02 07:33:32;;;;;;;1.93;1.60;;;;;;;5.32;84.53;96628.66;5038734;28;20213;-71
2022/01/02 07:35:59;;;;;;;4.53;2.00;;;;;;;5.55;84.33;96625.66;5037412;28;20225;-72
2022/01/02 07:38:27;;;;;;;3.70;2.03;;;;;;;5.45;84.26;96626.59;5038200;28;20213;-71
2022/01/02 07:40:53;;;;;;;5.53;1.97;;;;;;;5.48;84.40;96631.56;5038620;28;20286;-71
2022/01/02 07:43:20;;;;;;;6.00;2.40;;;;;;;5.52;84.47;96628.53;5037961;28;20205;-71
2022/01/02 07:45:48;;;;;;;1.40;1.30;;;;;;;5.49;85.22;96638.44;5038052;28;20228;-71
2022/01/02 07:48:14;;;;;;;2.53;2.23;;;;;;;5.11;85.22;96650.63;5035877;28;20211;-71
2022/01/02 07:50:41;;;;;;;2.57;1.77;;;;;;;5.23;84.61;96647.75;5039411;28;20221;-71
2022/01/02 07:53:07;;;;;;;6.77;2.57;;;;;;;5.43;85.05;96635.53;5038157;28;20212;-71
2022/01/02 07:55:34;;;;;;;2.97;2.10;;;;;;;5.48;84.18;96637.59;5038891;28;20209;-71
2022/01/02 07:58:01;;;;;;;5.77;3.37;;;;;;;5.91;83.47;96630.19;5038953;28;20216;-71
2022/01/02 08:00:28;;;;;;;1.90;1.60;;;;;;;5.64;84.37;96627.44;5037874;28;20252;-71
2022/01/02 08:02:56;;;;;;;2.33;2.10;;;;;;;5.65;84.41;96633.47;5037940;28;20693;-71
2022/01/02 08:05:23;;;;;;;4.03;2.47;;;;;;;5.48;85.20;96636.78;5039360;28;20229;-71
2022/01/02 08:07:49;;;;;;;1.53;1.30;;;;;;;5.27;84.60;96654.38;5038435;28;20205;-71
2022/01/02 08:10:16;;;;;;;3.40;2.23;;;;;;;5.79;83.16;96641.78;5037793;28;20253;-71
2022/01/02 08:12:42;;;;;;;3.00;1.60;;;;;;;5.83;83.42;96644.91;5037975;28;20220;-71
2022/01/02 08:15:10;;;;;;;2.43;2.13;;;;;;;6.32;82.24;96641.13;5039364;28;20227;-71
2022/01/02 08:17:37;;;;;;;5.30;2.23;;;;;;;6.28;81.98;96631.91;5037195;28;20197;-71
2022/01/02 08:20:06;;;;;;;8.27;1.60;;;;;;;6.51;82.88;96632.41;5037522;28;20201;-71
2022/01/02 08:22:32;;;;;;;3.40;2.17;;;;;;;6.40;81.76;96630.81;5037870;28;20208;-71
2022/01/02 08:24:59;;;;;;;5.20;3.40;;;;;;;6.58;82.22;96630.88;5038186;28;20226;-71
2022/01/02 08:27:26;;;;;;;5.60;2.03;;;;;;;6.80;81.62;96629.53;5038814;28;20202;-71
2022/01/02 08:29:52;;;;;;;8.47;3.20;;;;;;;6.65;81.75;96629.34;5037820;28;20502;-71
2022/01/02 08:32:19;;;;;;;5.77;2.03;;;;;;;6.96;81.80;96621.88;5038273;28;20216;-71
2022/01/02 08:34:45;;;;;;;8.83;2.57;;;;;;;6.75;82.41;96629.13;5038204;28;20228;-71
2022/01/02 08:37:15;;;;;;;3.70;1.70;;;;;;;7.25;81.53;96627.78;5037838;28;20202;-71
2022/01/02 08:39:41;;;;;;;4.77;3.33;;;;;;;7.26;81.44;96618.13;5037974;28;20876;-71
2022/01/02 08:42:08;;;;;;;9.10;4.33;;;;;;;7.47;81.42;96616.84;5037706;28;20208;-71
2022/01/02 08:44:35;;;;;;;9.03;4.33;;;;;;;7.75;80.93;96616.66;5038349;28;20217;-71
2022/01/02 08:47:02;;;;;;;15.27;5.23;;;;;;;7.63;81.18;96617.03;5038645;28;20212;-71
2022/01/02 08:49:28;;;;;;;8.87;4.43;;;;;;;7.80;80.36;96629.31;5037747;28;20224;-71
2022/01/02 08:51:55;;;;;;;6.80;3.50;;;;;;;7.74;81.52;96624.66;5037280;28;20213;-71
2022/01/02 08:54:23;;;;;;;8.93;3.93;;;;;;;8.38;80.74;96618.97;5035104;28;21207;-71
2022/01/02 08:56:50;;;;;;;3.70;2.77;;;;;;;8.27;78.67;96621.03;5035607;28;20212;-71
2022/01/02 08:59:17;;;;;;;7.77;3.40;;;;;;;8.07;79.47;96615.13;5034254;28;20201;-72
2022/01/02 09:01:43;;;;;;;11.73;3.97;;;;;;;8.06;79.72;96605.59;5036783;28;20211;-71
2022/01/02 09:04:10;;;;;;;5.93;3.00;;;;;;;8.16;78.87;96616.00;5036224;28;20247;-71
2022/01/02 09:06:36;;;;;;;4.93;2.63;;;;;;;8.08;78.86;96644.78;5034609;28;20208;-71
2022/01/02 09:09:03;;;;;;;6.53;3.10;;;;;;;7.96;80.23;96638.97;5036545;28;20212;-71
2022/01/02 09:11:31;;;;;;;5.47;2.70;;;;;;;8.01;81.04;96643.78;5037101;28;20201;-71
2022/01/02 09:13:58;;;;;;;7.13;2.50;;;;;;;8.06;79.66;96625.78;5035586;28;20237;-71
2022/01/02 09:16:25;;;;;;;7.47;4.13;;;;;;;8.30;78.67;96616.31;5037131;28;21018;-71
2022/01/02 09:18:52;;;;;;;7.57;4.13;;;;;;;8.30;78.72;96608.44;5033317;28;20201;-71
2022/01/02 09:21:18;;;;;;;10.53;5.50;;;;;;;8.20;79.11;96620.81;5036548;28;20193;-71
2022/01/02 09:23:44;;;;;;;10.50;3.90;;;;;;;8.51;78.64;96612.34;5035590;28;20696;-71
2022/01/02 09:26:11;;;;;;;11.80;4.90;;;;;;;8.43;78.32;96611.47;5035949;28;20201;-71
2022/01/02 09:28:40;;;;;;;4.80;2.50;;;;;;;8.56;79.33;96617.13;5035868;28;20313;-71
2022/01/02 09:31:06;;;;;;;6.77;3.30;;;;;;;8.20;79.24;96609.50;5035768;28;20225;-71
2022/01/02 09:33:33;;;;;;;6.77;4.53;;;;;;;8.53;78.66;96615.63;5034873;28;20205;-71
2022/01/02 09:35:59;;;;;;;8.90;3.10;;;;;;;8.40;80.08;96614.41;5034758;28;20221;-71
2022/01/02 09:38:26;;;;;;;9.30;4.07;;;;;;;8.61;78.78;96612.22;5037023;28;20201;-71
2022/01/02 09:40:52;;;;;;;7.37;3.53;;;;;;;8.33;80.32;96609.91;5035918;28;20969;-71
2022/01/02 09:43:20;;;;;;;8.00;3.97;;;;;;;8.52;78.79;96608.72;5035218;28;20197;-71
2022/01/02 09:45:49;;;;;;;9.60;3.87;;;;;;;9.12;77.86;96603.25;5035432;28;20221;-71
2022/01/02 09:48:16;;;;;;;5.93;2.97;;;;;;;8.67;78.86;96617.66;5035943;28;20198;-71
2022/01/02 09:50:43;;;;;;;8.53;3.30;;;;;;;9.27;77.50;96611.34;5035665;28;20229;-71
2022/01/02 09:53:10;;;;;;;12.90;4.30;;;;;;;9.37;76.30;96612.06;5036403;28;20204;-71
2022/01/02 09:55:37;;;;;;;8.00;3.80;;;;;;;8.93;76.99;96622.91;5036138;28;20311;-71
2022/01/02 09:58:10;;;;;;;7.40;3.80;;;;;;;9.51;75.98;96616.66;5035927;28;20201;-72
2022/01/02 10:00:38;;;;;;;7.27;3.27;;;;;;;9.65;75.97;96618.66;5033436;28;20680;-71
2022/01/02 10:03:07;;;;;;;11.40;4.23;;;;;;;10.10;73.87;96602.28;5035216;28;20205;-71
2022/01/02 10:05:50;;;;;;;6.57;3.23;;;;;;;10.38;73.56;96590.41;5035277;28;20225;-71
2022/01/02 10:08:23;;;;;;;6.30;3.10;;;;;;;10.55;72.37;96605.19;5036401;28;20208;-70
2022/01/02 10:10:58;;;;;;;8.80;4.47;;;;;;;10.58;71.74;96597.78;5035654;28;20228;-71
2022/01/02 10:13:38;;;;;;;6.57;4.00;;;;;;;10.90;71.70;96615.34;5034919;28;20335;-71
2022/01/02 10:16:04;;;;;;;9.60;3.77;;;;;;;10.58;71.69;96607.50;5035879;28;20303;-70
2022/01/02 10:18:32;;;;;;;5.37;2.90;;;;;;;10.81;71.28;96597.91;5036593;28;20197;-71
2022/01/02 10:21:00;;;;;;;10.87;3.43;;;;;;;10.82;71.52;96604.78;5036108;28;20205;-70
2022/01/02 10:23:27;;;;;;;6.67;3.17;;;;;;;10.79;71.21;96599.88;5035720;28;20229;-71
2022/01/02 10:25:55;;;;;;;8.83;3.80;;;;;;;11.15;70.83;96600.06;5035374;28;20228;-70
2022/01/02 10:28:34;;;;;;;7.23;2.90;;;;;;;11.26;69.50;96588.31;5032142;28;20938;-72
2022/01/02 10:31:04;;;;;;;6.00;3.10;;;;;;;10.84;70.77;96587.81;5035241;28;20236;-72
2022/01/02 10:33:47;;;;;;;10.67;4.10;;;;;;;11.28;70.30;96581.03;5035295;28;20201;-73
2022/01/02 10:36:14;;;;;;;11.83;3.77;;;;;;;10.86;70.99;96598.19;5038808;28;20203;-72
2022/01/02 10:38:59;;;;;;;12.10;3.63;;;;;;;11.20;71.00;96589.81;5039693;28;20318;-73
2022/01/02 10:41:30;;;;;;;6.30;2.60;;;;;;;11.27;70.49;96584.66;5040155;28;20197;-72
2022/01/02 10:43:56;;;;;;;7.40;3.17;;;;;;;11.35;69.69;96574.88;5038182;28;20209;-72
2022/01/02 10:46:23;;;;;;;5.90;3.30;;;;;;;11.42;69.91;96562.66;5038787;28;20960;-72
2022/01/02 10:48:54;;;;;;;8.53;3.53;;;;;;;12.01;68.57;96560.09;5039035;28;20682;-72
2022/01/02 10:51:24;;;;;;;8.93;3.27;;;;;;;11.68;68.05;96560.53;5037999;28;20236;-72
2022/01/02 10:53:55;;;;;;;9.40;3.17;;;;;;;12.16;67.36;96560.16;5037285;28;21020;-72
2022/01/02 10:56:24;;;;;;;9.83;3.97;;;;;;;12.24;67.55;96574.94;5038954;28;20213;-72
2022/01/02 10:58:51;;;;;;;11.20;3.73;;;;;;;11.84;68.41;96563.88;5034480;28;20208;-72
2022/01/02 11:01:18;;;;;;;5.87;2.97;;;;;;;12.17;67.61;96562.63;5038157;28;20243;-72
2022/01/02 11:03:45;;;;;;;8.03;3.23;;;;;;;12.16;69.60;96553.84;5037022;28;20209;-72
2022/01/02 11:06:23;;;;;;;7.50;3.27;;;;;;;12.25;69.64;96549.31;5037361;28;20202;-70
2022/01/02 11:08:51;;;;;;;10.40;3.23;;;;;;;12.17;67.58;96542.28;5036348;28;20212;-72
2022/01/02 11:11:19;;;;;;;8.67;2.47;;;;;;;12.38;66.50;96557.44;5037983;28;20221;-71
2022/01/02 11:13:46;;;;;;;11.43;3.80;;;;;;;12.10;66.38;96551.09;5037054;28;20206;-72
2022/01/02 11:16:13;;;;;;;5.97;2.20;;;;;;;11.79;66.42;96536.38;5038006;28;20213;-72
2022/01/02 11:18:40;;;;;;;7.80;2.90;;;;;;;12.16;67.01;96537.19;5037785;28;20209;-72
2022/01/02 11:21:11;;;;;;;13.33;3.27;;;;;;;12.63;66.33;96543.00;5038301;28;20677;-72
2022/01/02 11:23:50;;;;;;;9.27;3.87;;;;;;;12.55;66.72;96533.31;5037194;28;20212;-72
2022/01/02 11:26:25;;;;;;;13.93;3.03;;;;;;;12.39;67.16;96525.53;5037531;28;21324;-72
2022/01/02 11:28:52;;;;;;;4.57;2.83;;;;;;;12.28;66.05;96531.28;5038157;28;20212;-72
2022/01/02 11:31:30;;;;;;;8.37;2.80;;;;;;;12.52;66.34;96536.31;5038111;28;20295;-72
2022/01/02 11:33:57;;;;;;;5.47;2.57;;;;;;;12.40;67.10;96535.13;5036703;28;20208;-72
2022/01/02 11:36:26;;;;;;;3.77;2.43;;;;;;;12.16;68.62;96531.09;5037952;28;20591;-72
2022/01/02 11:39:00;;;;;;;7.37;3.07;;;;;;;12.39;67.76;96543.25;5033304;28;20213;-72
2022/01/02 11:41:37;;;;;;;3.20;1.97;;;;;;;12.47;65.86;96543.16;5037621;28;20205;-72
2022/01/02 11:44:04;;;;;;;7.87;3.07;;;;;;;12.28;66.55;96541.88;5036909;28;20235;-71
2022/01/02 11:46:37;;;;;;;9.37;3.63;;;;;;;12.57;66.49;96538.44;5034080;28;20205;-71
2022/01/02 11:49:22;;;;;;;4.47;2.47;;;;;;;12.58;65.86;96535.59;5036580;28;20565;-71